createdAt,value
2023-04-25T00:03:11.247Z,99.90
2023-04-25T00:07:33.481Z,99.90
2023-04-25T00:11:58.153Z,99.90
2023-04-25T00:16:20.370Z,99.90
2023-04-25T00:20:47.786Z,99.90
2023-04-25T00:25:09.948Z,99.90
2023-04-25T00:29:31.919Z,99.90
2023-04-25T00:33:54.417Z,99.90
2023-04-25T00:38:16.517Z,99.90
2023-04-25T00:42:39.660Z,99.90
2023-04-25T00:47:04.686Z,99.90
2023-04-25T00:51:28.053Z,99.90
2023-04-25T00:55:52.021Z,99.90
2023-04-25T01:00:15.812Z,99.90
2023-04-25T01:04:40.191Z,99.90
2023-04-25T01:09:04.111Z,99.90
2023-04-25T01:13:26.029Z,99.90
2023-04-25T01:17:48.318Z,99.90
2023-04-25T01:22:11.749Z,99.90
2023-04-25T01:26:34.632Z,99.90
2023-04-25T01:30:58.123Z,99.90
2023-04-25T01:35:20.492Z,99.90
2023-04-25T01:39:42.600Z,99.90
2023-04-25T01:44:05.641Z,99.90
2023-04-25T01:48:28.009Z,99.90
2023-04-25T01:52:50.955Z,99.90
2023-04-25T01:57:13.936Z,99.90
2023-04-25T02:01:37.916Z,99.90
2023-04-25T02:06:12.077Z,99.90
2023-04-25T02:10:39.607Z,99.90
2023-04-25T02:15:24.562Z,99.90
2023-04-25T02:19:51.365Z,99.90
2023-04-25T02:24:13.741Z,99.90
2023-04-25T02:28:36.219Z,99.90
2023-04-25T02:33:00.952Z,99.90
2023-04-25T02:37:23.181Z,99.90
2023-04-25T02:41:45.422Z,99.90
2023-04-25T02:46:08.540Z,99.90
2023-04-25T02:50:30.378Z,99.90
2023-04-25T02:54:52.557Z,99.90
2023-04-25T02:59:14.611Z,99.90
2023-04-25T03:03:36.724Z,99.90
2023-04-25T03:07:58.572Z,99.90
2023-04-25T03:12:21.673Z,99.90
2023-04-25T03:16:44.129Z,99.90
2023-04-25T03:21:06.636Z,99.90
2023-04-25T03:25:28.608Z,99.90
2023-04-25T03:29:50.697Z,99.90
2023-04-25T03:34:13.316Z,99.90
2023-04-25T03:38:37.011Z,99.90
2023-04-25T03:43:00.878Z,99.90
2023-04-25T03:47:23.437Z,99.90
2023-04-25T03:51:47.207Z,99.90
2023-04-25T03:56:11.561Z,99.90
2023-04-25T04:00:36.587Z,99.90
2023-04-25T04:04:59.391Z,99.90
2023-04-25T04:09:22.558Z,99.90
2023-04-25T04:13:44.574Z,99.90
2023-04-25T04:18:07.497Z,99.90
2023-04-25T04:22:29.961Z,99.90
2023-04-25T04:26:56.218Z,99.90
2023-04-25T04:31:26.270Z,99.90
2023-04-25T04:35:49.615Z,99.90
2023-04-25T04:40:13.481Z,99.90
2023-04-25T04:44:40.779Z,99.90
2023-04-25T04:49:16.640Z,99.90
2023-04-25T04:54:03.552Z,99.90
2023-04-25T04:58:46.086Z,99.90
2023-04-25T05:03:34.858Z,99.90
2023-04-25T05:07:57.121Z,99.90
2023-04-25T05:12:46.104Z,99.90
2023-04-25T05:17:25.618Z,99.90
2023-04-25T05:22:10.904Z,99.90
2023-04-25T05:26:50.111Z,99.90
2023-04-25T05:31:31.447Z,99.90
2023-04-25T05:35:57.901Z,99.40
2023-04-25T05:40:21.613Z,89.80
2023-04-25T05:44:54.896Z,89.10
2023-04-25T05:49:45.417Z,91.50
2023-04-25T05:54:27.276Z,95.60
2023-04-25T05:58:51.029Z,94.80
2023-04-25T06:03:17.213Z,96.40
2023-04-25T06:07:42.074Z,97.70
2023-04-25T06:12:04.331Z,98.40
2023-04-25T06:16:27.341Z,97.70
2023-04-25T06:20:49.680Z,97.40
2023-04-25T06:25:13.854Z,98.30
2023-04-25T06:29:36.060Z,97.10
2023-04-25T06:33:58.198Z,92.90
2023-04-25T06:38:22.237Z,88.60
2023-04-25T06:42:46.824Z,88.70
2023-04-25T06:47:39.042Z,90.20
2023-04-25T06:52:01.478Z,92.80
2023-04-25T06:56:24.524Z,94.80
2023-04-25T07:00:56.240Z,96.90
2023-04-25T07:05:20.804Z,98.70
2023-04-25T07:09:43.178Z,98.60
2023-04-25T07:14:05.945Z,98.50
2023-04-25T07:18:29.548Z,98.00
2023-04-25T07:22:52.286Z,95.80
2023-04-25T07:27:15.660Z,95.20
2023-04-25T07:31:59.788Z,93.70
2023-04-25T07:36:22.763Z,92.40
2023-04-25T07:40:44.843Z,90.60
2023-04-25T07:45:08.904Z,90.40
2023-04-25T07:49:31.640Z,92.50
2023-04-25T07:53:53.880Z,94.90
2023-04-25T07:58:17.344Z,95.90
2023-04-25T08:02:42.042Z,96.50
2023-04-25T08:07:10.908Z,96.70
2023-04-25T08:11:44.617Z,96.00
2023-04-25T08:16:10.462Z,96.50
2023-04-25T08:20:32.991Z,95.30
2023-04-25T08:24:57.759Z,82.30
2023-04-25T08:29:20.407Z,68.00
2023-04-25T08:33:42.553Z,72.60
2023-04-25T08:38:16.214Z,81.70
2023-04-25T08:42:41.983Z,91.20
2023-04-25T08:47:06.268Z,95.20
2023-04-25T08:51:35.724Z,98.20
2023-04-25T08:56:02.938Z,99.80
2023-04-25T09:00:30.619Z,98.60
2023-04-25T09:04:55.922Z,99.50
2023-04-25T09:09:19.215Z,99.50
2023-04-25T09:13:41.178Z,97.90
2023-04-25T09:18:30.927Z,97.10
2023-04-25T09:23:06.851Z,98.70
2023-04-25T09:27:31.262Z,99.90
2023-04-25T09:32:25.494Z,99.90
2023-04-25T09:36:50.742Z,99.90
2023-04-25T09:41:43.564Z,99.90
2023-04-25T09:46:12.969Z,99.90
2023-04-25T09:50:40.813Z,99.90
2023-04-25T09:55:07.874Z,99.90
2023-04-25T09:59:32.935Z,99.90
2023-04-25T10:03:59.329Z,99.90
2023-04-25T10:08:40.556Z,99.90
2023-04-25T10:13:08.092Z,99.90
2023-04-25T10:17:30.321Z,99.90
2023-04-25T10:22:40.342Z,99.90
2023-04-25T10:27:02.994Z,99.90
2023-04-25T10:31:25.324Z,99.90
2023-04-25T10:35:47.659Z,99.90
2023-04-25T10:40:11.486Z,99.90
2023-04-25T10:44:33.596Z,99.90
2023-04-25T10:49:01.506Z,99.90
2023-04-25T10:53:28.690Z,99.90
2023-04-25T10:57:52.054Z,99.90
2023-04-25T11:02:14.959Z,99.90
2023-04-25T11:07:08.930Z,99.90
2023-04-25T11:11:31.516Z,99.90
2023-04-25T11:16:03.172Z,99.90
2023-04-25T11:20:34.312Z,99.90
2023-04-25T11:24:56.534Z,99.90
2023-04-25T11:29:18.543Z,99.90
2023-04-25T11:33:42.176Z,99.90
2023-04-25T11:38:05.539Z,99.90
2023-04-25T11:42:28.120Z,99.90
2023-04-25T11:47:15.724Z,99.90
2023-04-25T11:57:22.263Z,99.90
2023-04-25T12:01:51.093Z,99.90
2023-04-25T12:06:19.321Z,99.90
2023-04-25T12:10:42.685Z,99.90
2023-04-25T12:15:26.276Z,99.90
2023-04-25T12:19:48.462Z,99.90
2023-04-25T12:24:14.046Z,99.90
2023-04-25T12:28:36.037Z,99.90
2023-04-25T12:32:58.334Z,99.90
2023-04-25T12:37:20.747Z,99.90
2023-04-25T12:41:42.958Z,99.90
2023-04-25T12:46:04.866Z,99.90
2023-04-25T12:50:28.136Z,99.90
2023-04-25T12:54:50.665Z,99.90
2023-04-25T12:59:15.238Z,99.90
2023-04-25T13:03:37.518Z,99.90
2023-04-25T13:08:00.492Z,99.90
2023-04-25T13:12:22.281Z,99.90
2023-04-25T13:16:48.037Z,99.90
2023-04-25T13:21:12.709Z,99.90
2023-04-25T13:25:35.271Z,99.90
2023-04-25T13:29:57.328Z,99.90
2023-04-25T13:34:19.278Z,99.90
2023-04-25T13:38:45.309Z,99.90
2023-04-25T13:43:07.893Z,99.90
2023-04-25T13:47:31.316Z,99.90
2023-04-25T13:51:53.333Z,99.90
2023-04-25T13:56:15.834Z,99.90
2023-04-25T14:00:40.724Z,99.90
2023-04-25T14:05:04.694Z,99.90
2023-04-25T14:09:28.409Z,99.90
2023-04-25T14:13:50.706Z,99.90
2023-04-25T14:18:13.296Z,99.90
2023-04-25T14:22:35.838Z,99.90
2023-04-25T14:26:58.237Z,99.90
2023-04-25T14:31:20.294Z,99.90
2023-04-25T14:35:42.588Z,99.90
2023-04-25T14:40:06.306Z,99.90
2023-04-25T14:44:28.321Z,99.90
2023-04-25T14:48:50.956Z,99.90
2023-04-25T14:53:14.375Z,99.90
2023-04-25T14:57:36.675Z,99.90
2023-04-25T15:01:59.843Z,99.90
2023-04-25T15:06:22.311Z,99.90
2023-04-25T15:10:44.166Z,99.90
2023-04-25T15:15:14.273Z,99.90
2023-04-25T15:19:39.769Z,99.90
2023-04-25T15:24:02.422Z,99.90
2023-04-25T15:28:24.824Z,99.90
2023-04-25T15:32:48.194Z,99.90
2023-04-25T15:37:10.197Z,99.90
2023-04-25T15:41:32.198Z,99.90
2023-04-25T15:45:54.187Z,99.90
2023-04-25T15:50:16.537Z,99.90
2023-04-25T15:54:38.663Z,99.90
2023-04-25T15:59:00.838Z,99.90
2023-04-25T16:03:23.143Z,99.90
2023-04-25T16:07:47.105Z,99.90
2023-04-25T16:12:11.884Z,99.90
2023-04-25T16:16:34.227Z,99.90
2023-04-25T16:20:56.559Z,99.90
2023-04-25T16:25:18.931Z,99.90
2023-04-25T16:29:42.099Z,99.90
2023-04-25T16:34:07.202Z,99.90
2023-04-25T16:38:29.929Z,99.90
2023-04-25T16:42:52.343Z,99.90
2023-04-25T16:47:18.628Z,99.90
2023-04-25T16:51:41.793Z,99.90
2023-04-25T16:56:08.054Z,99.90
2023-04-25T17:00:30.075Z,99.90
2023-04-25T17:04:52.733Z,99.90
2023-04-25T17:09:15.444Z,99.90
2023-04-25T17:13:37.815Z,99.90
2023-04-25T17:18:12.173Z,99.90
2023-04-25T17:22:37.312Z,99.90
2023-04-25T17:26:59.680Z,99.90
2023-04-25T17:31:24.138Z,99.90
2023-04-25T17:35:46.382Z,99.90
2023-04-25T17:40:12.264Z,99.90
2023-04-25T17:44:35.500Z,99.90
2023-04-25T17:48:58.695Z,99.90
2023-04-25T17:53:20.815Z,99.90
2023-04-25T17:57:42.770Z,99.90
2023-04-25T18:02:05.197Z,99.90
2023-04-25T18:06:28.561Z,99.90
2023-04-25T18:10:51.364Z,99.90
2023-04-25T18:15:13.409Z,99.90
2023-04-25T18:19:36.273Z,99.90
2023-04-25T18:23:58.276Z,99.90
2023-04-25T18:28:22.209Z,99.90
2023-04-25T18:32:44.595Z,99.90
2023-04-25T18:37:07.101Z,99.90
2023-04-25T18:41:53.627Z,99.90
2023-04-25T18:46:22.608Z,99.90
2023-04-25T18:50:44.559Z,99.90
2023-04-25T18:55:07.483Z,99.90
2023-04-25T18:59:30.084Z,99.90
2023-04-25T19:03:57.193Z,99.90
2023-04-25T19:08:20.959Z,99.90
2023-04-25T19:12:43.089Z,99.90
2023-04-25T19:17:05.111Z,99.90
2023-04-25T19:21:27.359Z,99.90
2023-04-25T19:25:49.640Z,99.90
2023-04-25T19:30:12.470Z,99.90
2023-04-25T19:34:34.473Z,99.90
2023-04-25T19:39:02.778Z,99.90
2023-04-25T19:43:25.013Z,99.90
2023-04-25T19:47:48.453Z,99.90
2023-04-25T19:52:14.975Z,99.90
2023-04-25T19:56:37.183Z,99.90
2023-04-25T20:00:59.257Z,99.90
2023-04-25T20:05:21.183Z,99.90
2023-04-25T20:09:43.121Z,99.90
2023-04-25T20:14:06.002Z,99.90
2023-04-25T20:18:27.784Z,99.90
2023-04-25T20:22:52.995Z,99.90
2023-04-25T20:27:15.298Z,99.90
2023-04-25T20:31:38.080Z,99.90
2023-04-25T20:36:00.425Z,99.90
2023-04-25T20:40:22.370Z,99.90
2023-04-25T20:44:44.485Z,99.90
2023-04-25T20:49:06.603Z,99.90
2023-04-25T20:53:28.517Z,99.90
2023-04-25T20:57:51.278Z,99.90
2023-04-25T21:02:15.848Z,99.90
2023-04-25T21:06:37.920Z,99.90
2023-04-25T21:10:59.936Z,99.90
2023-04-25T21:15:22.188Z,99.90
2023-04-25T21:19:44.356Z,99.90
2023-04-25T21:24:06.778Z,99.90
2023-04-25T21:28:28.788Z,99.90
2023-04-25T21:32:51.695Z,99.90
2023-04-25T21:37:14.231Z,99.90
2023-04-25T21:41:37.717Z,99.90
2023-04-25T21:46:21.752Z,99.90
2023-04-25T21:50:42.252Z,99.90
2023-04-25T21:55:04.984Z,99.90
2023-04-25T21:59:26.808Z,99.90
2023-04-25T22:03:48.855Z,99.90
2023-04-25T22:08:10.898Z,99.90
2023-04-25T22:12:34.037Z,99.90
2023-04-25T22:16:56.519Z,99.90
2023-04-25T22:21:18.520Z,99.90
2023-04-25T22:25:41.648Z,99.90
2023-04-25T22:30:04.897Z,99.90
2023-04-25T22:34:26.789Z,99.90
2023-04-25T22:38:49.111Z,99.90
2023-04-25T22:43:10.973Z,99.90
2023-04-25T22:47:33.687Z,99.90
2023-04-25T22:51:57.080Z,99.90
2023-04-25T22:56:19.452Z,99.90
2023-04-25T23:00:41.570Z,99.90
2023-04-25T23:05:04.876Z,99.90
2023-04-25T23:09:27.797Z,99.90
2023-04-25T23:13:49.797Z,99.90
2023-04-25T23:18:11.682Z,99.90
2023-04-25T23:22:34.773Z,99.90
2023-04-25T23:26:57.019Z,99.90
2023-04-25T23:31:18.925Z,99.90
2023-04-25T23:35:41.403Z,99.90
2023-04-25T23:40:12.671Z,99.90
2023-04-25T23:44:34.858Z,99.90
2023-04-25T23:48:57.199Z,99.90
2023-04-25T23:53:19.196Z,99.90
2023-04-25T23:57:44.537Z,99.90
